Time;durP1;ratioP1;P1;durP2;ratioP2;P2;SDS_P1;SDS_P2;PMS_P1;PMS_P2;Temp;Humidity;BMP_temperature;BMP_pressure;BME280_temperature;BME280_humidity;BME280_pressure;Samples;Min_cycle;Max_cycle;Signal;HPM_P1;HPM_P2
2022/04/21 00:00:20;;;;;;;13.32;8.25;;;;;;;11.44;94.64;98183.63;5111761;28;20493;-91
2022/04/21 00:02:47;;;;;;;18.45;8.70;;;;;;;11.30;96.19;98158.44;5112103;28;20075;-92
2022/04/21 00:05:13;;;;;;;13.15;8.32;;;;;;;11.43;98.23;98168.63;5111797;28;20047;-92
2022/04/21 00:07:39;;;;;;;13.15;8.00;;;;;;;11.41;98.47;98173.13;5111547;28;20122;-92
2022/04/21 00:10:07;;;;;;;12.45;8.32;;;;;;;11.40;99.12;98180.22;5111915;28;20060;-92
2022/04/21 00:12:34;;;;;;;12.82;8.55;;;;;;;11.38;99.51;98174.09;5111532;28;20140;-93
2022/04/21 00:15:00;;;;;;;13.18;8.20;;;;;;;11.39;99.83;98170.50;5111571;28;20036;-92
2022/04/21 00:17:26;;;;;;;13.63;8.52;;;;;;;11.40;100.00;98180.22;5110854;28;20147;-93
2022/04/21 00:19:53;;;;;;;14.52;8.32;;;;;;;11.34;100.00;98158.31;5111155;28;20439;-91
2022/04/21 00:25:17;;;;;;;14.90;8.27;;;;;;;11.21;100.00;98157.91;5148929;27;20163;-94
2022/04/21 00:27:45;;;;;;;16.63;9.00;;;;;;;11.35;100.00;98176.03;5116991;27;20243;-93
2022/04/21 00:30:12;;;;;;;14.70;9.18;;;;;;;11.37;100.00;98187.47;5112146;28;20044;-93
2022/04/21 00:32:40;;;;;;;13.20;9.27;;;;;;;11.38;100.00;98181.22;5111785;28;20039;-93
2022/04/21 00:35:08;;;;;;;13.75;9.13;;;;;;;11.34;100.00;98172.47;5112321;28;20393;-93
2022/04/21 00:37:43;;;;;;;17.27;9.05;;;;;;;11.08;100.00;98150.44;5112283;28;20052;-92
2022/04/21 00:40:10;;;;;;;14.52;9.07;;;;;;;11.08;100.00;98160.19;5113010;28;20044;-93
2022/04/21 00:42:37;;;;;;;16.67;9.27;;;;;;;10.81;100.00;98131.06;5112291;28;20043;-91
2022/04/21 00:45:03;;;;;;;15.60;9.30;;;;;;;10.94;100.00;98157.22;5112575;28;20059;-93
2022/04/21 00:47:30;;;;;;;15.82;8.98;;;;;;;10.82;100.00;98146.13;5112388;28;20044;-94
2022/04/21 00:49:56;;;;;;;15.55;8.95;;;;;;;10.77;100.00;98153.41;5112639;28;20048;-92
2022/04/21 00:52:23;;;;;;;13.82;9.18;;;;;;;10.66;100.00;98145.81;5112696;28;20093;-93
2022/04/21 00:54:49;;;;;;;13.77;8.93;;;;;;;10.71;100.00;98139.47;5112739;28;20122;-93
2022/04/21 00:57:15;;;;;;;16.30;9.82;;;;;;;10.54;100.00;98111.72;5112610;28;20550;-94
2022/04/21 00:59:43;;;;;;;13.93;9.38;;;;;;;10.44;100.00;98097.91;5112724;28;20048;-94
2022/04/21 01:05:08;;;;;;;18.20;10.23;;;;;;;10.50;100.00;98117.22;5147928;27;20537;-92
2022/04/21 01:07:34;;;;;;;17.23;9.95;;;;;;;10.41;100.00;98105.13;5132857;27;20055;-94
2022/04/21 01:10:00;;;;;;;16.58;10.18;;;;;;;10.34;100.00;98096.50;5132825;27;20052;-91
2022/04/21 01:12:25;;;;;;;18.67;10.32;;;;;;;10.53;100.00;98114.44;5132746;27;20042;-93
2022/04/21 01:14:51;;;;;;;15.80;9.68;;;;;;;10.44;100.00;98086.41;5132734;27;20061;-93
2022/04/21 01:17:30;;;;;;;14.55;9.43;;;;;;;10.45;100.00;98081.06;5132613;27;20040;-93
2022/04/21 01:19:56;;;;;;;13.75;9.30;;;;;;;10.37;100.00;98076.94;5129604;28;20039;-93
2022/04/21 01:22:23;;;;;;;16.10;9.43;;;;;;;10.27;100.00;98065.75;5132917;27;20384;-93
2022/04/21 01:24:49;;;;;;;16.35;9.93;;;;;;;10.33;100.00;98070.00;5133001;27;20089;-91
2022/04/21 01:27:15;;;;;;;16.25;10.45;;;;;;;10.30;100.00;98059.47;5132460;27;20036;-91
2022/04/21 01:29:43;;;;;;;16.70;10.40;;;;;;;10.39;100.00;98075.97;5132307;27;20039;-94
2022/04/21 01:32:09;;;;;;;14.95;10.68;;;;;;;10.15;100.00;98061.75;5132877;27;20139;-93
2022/04/21 01:34:35;;;;;;;18.27;11.50;;;;;;;10.15;100.00;98072.38;5132944;27;20100;-95
2022/04/21 01:42:58;;;;;;;17.65;11.10;;;;;;;10.12;100.00;98053.88;5145640;27;20156;-92
2022/04/21 01:45:24;;;;;;;18.05;11.15;;;;;;;10.10;100.00;98053.06;5111636;28;20057;-93
2022/04/21 01:47:50;;;;;;;20.27;11.40;;;;;;;9.96;100.00;98040.31;5113199;28;20048;-92
2022/04/21 01:50:16;;;;;;;15.73;11.10;;;;;;;10.03;100.00;98046.25;5113056;28;20044;-93
2022/04/21 01:52:42;;;;;;;24.60;11.43;;;;;;;9.89;100.00;98022.88;5112835;28;20040;-90
2022/04/21 01:55:08;;;;;;;15.70;10.63;;;;;;;9.82;100.00;98011.59;5112438;28;20040;-93
2022/04/21 01:57:34;;;;;;;16.90;10.05;;;;;;;9.89;100.00;98020.22;5112150;28;20044;-92
2022/04/21 02:00:02;;;;;;;18.50;11.55;;;;;;;9.92;100.00;98025.41;5112864;28;20131;-91
2022/04/21 02:02:29;;;;;;;20.75;12.60;;;;;;;9.84;100.00;98009.72;5112029;28;20137;-93
2022/04/21 02:04:57;;;;;;;16.30;10.63;;;;;;;9.91;100.00;98002.44;5111815;28;20101;-93
2022/04/21 02:07:24;;;;;;;18.92;9.75;;;;;;;9.97;100.00;97998.66;5110429;28;20476;-91
2022/04/21 02:09:50;;;;;;;17.30;10.30;;;;;;;9.91;100.00;97997.13;5112172;28;20535;-91
2022/04/21 02:12:16;;;;;;;15.38;9.88;;;;;;;9.91;100.00;97986.50;5112712;28;20055;-92
2022/04/21 02:14:42;;;;;;;18.95;10.70;;;;;;;10.14;100.00;98019.31;5111994;28;20400;-92
2022/04/21 02:17:09;;;;;;;15.68;9.32;;;;;;;10.06;100.00;97993.91;5111389;28;20044;-91
2022/04/21 02:19:36;;;;;;;15.35;10.23;;;;;;;10.10;100.00;97991.13;5112280;28;20040;-92
2022/04/21 02:22:02;;;;;;;14.57;9.32;;;;;;;10.22;100.00;98001.28;5110449;28;20385;-92
2022/04/21 02:24:27;;;;;;;14.77;10.05;;;;;;;10.25;100.00;97990.53;5111424;28;20063;-91
2022/04/21 02:26:53;;;;;;;14.75;9.30;;;;;;;10.26;100.00;97984.31;5110365;28;20036;-91
2022/04/21 02:29:19;;;;;;;13.50;9.75;;;;;;;10.28;100.00;97985.13;5111318;28;20040;-91
2022/04/21 02:31:45;;;;;;;14.80;8.90;;;;;;;10.28;100.00;97970.03;5110666;28;20557;-93
2022/04/21 02:34:12;;;;;;;14.90;10.10;;;;;;;10.22;100.00;97962.28;5111429;28;20059;-92
2022/04/21 02:36:38;;;;;;;17.88;9.75;;;;;;;10.30;100.00;97971.78;5111043;28;20054;-94
2022/04/21 02:39:04;;;;;;;15.75;9.75;;;;;;;10.35;100.00;97985.78;5111288;28;20397;-91
2022/04/21 02:41:30;;;;;;;15.20;9.68;;;;;;;10.35;100.00;97976.00;5110518;28;20047;-92
2022/04/21 02:43:56;;;;;;;14.48;8.98;;;;;;;10.24;100.00;97951.63;5110005;28;20040;-90
2022/04/21 02:46:27;;;;;;;18.75;10.73;;;;;;;10.27;100.00;97947.03;5110932;28;20401;-92
2022/04/21 02:48:54;;;;;;;16.85;9.45;;;;;;;10.26;100.00;97953.28;5111171;28;20048;-92
2022/04/21 02:51:21;;;;;;;16.95;10.00;;;;;;;10.31;100.00;97963.75;5110831;28;20036;-91
2022/04/21 02:57:21;;;;;;;14.40;10.45;;;;;;;10.36;100.00;97963.56;5147785;27;20353;-93
2022/04/21 02:59:48;;;;;;;16.02;10.00;;;;;;;10.41;100.00;97962.47;5123998;28;20043;-92
2022/04/21 03:02:14;;;;;;;16.17;10.35;;;;;;;10.33;100.00;97939.78;5124609;27;20039;-93
2022/04/21 03:04:39;;;;;;;14.48;10.55;;;;;;;10.42;100.00;97953.56;5123041;27;20044;-92
2022/04/21 03:07:05;;;;;;;16.05;9.48;;;;;;;10.50;100.00;97961.25;5122269;28;20047;-92
2022/04/21 03:09:32;;;;;;;15.60;9.80;;;;;;;10.48;100.00;97953.31;5120550;27;20027;-91
2022/04/21 03:12:01;;;;;;;16.60;9.48;;;;;;;10.45;100.00;97952.56;5120026;27;20070;-92
2022/04/21 03:14:29;;;;;;;16.40;10.88;;;;;;;10.38;100.00;97951.09;5117026;28;20024;-94
2022/04/21 03:16:55;;;;;;;17.98;10.00;;;;;;;10.25;100.00;97942.69;5121365;28;20055;-93
2022/04/21 03:19:21;;;;;;;15.38;9.93;;;;;;;10.28;100.00;97935.47;5120332;27;20374;-92
2022/04/21 03:24:52;;;;;;;14.73;9.70;;;;;;;10.37;100.00;97960.00;5168300;27;20135;-93
2022/04/21 03:27:18;;;;;;;15.25;10.13;;;;;;;10.31;100.00;97969.06;5151908;27;20042;-93
2022/04/21 03:29:44;;;;;;;16.67;10.40;;;;;;;10.17;100.00;97952.75;5152880;27;20054;-92
2022/04/21 03:32:11;;;;;;;16.55;10.45;;;;;;;10.19;100.00;97946.47;5150961;27;20038;-92
2022/04/21 03:34:41;;;;;;;16.30;9.98;;;;;;;10.37;100.00;97960.88;5151568;27;20449;-92
2022/04/21 03:37:12;;;;;;;20.00;10.70;;;;;;;10.34;100.00;97955.66;5152011;27;20039;-92
2022/04/21 03:39:39;;;;;;;17.42;10.63;;;;;;;10.24;100.00;97939.19;5151526;27;20050;-92
2022/04/21 03:42:17;;;;;;;18.90;11.02;;;;;;;10.28;100.00;97954.09;5153050;27;20042;-91
2022/04/21 03:44:43;;;;;;;18.35;11.05;;;;;;;10.20;100.00;97948.19;5150924;27;20035;-91
2022/04/21 03:47:09;;;;;;;17.50;10.80;;;;;;;10.24;100.00;97948.97;5151613;27;20039;-92
2022/04/21 03:49:35;;;;;;;21.05;10.73;;;;;;;10.25;100.00;97953.31;5151897;27;20031;-91
2022/04/21 03:52:01;;;;;;;16.63;10.32;;;;;;;10.31;100.00;97966.41;5151762;27;20039;-92
2022/04/21 03:54:27;;;;;;;18.45;9.77;;;;;;;10.23;100.00;97944.56;5152357;27;20545;-91
2022/04/21 03:56:53;;;;;;;17.27;10.73;;;;;;;10.31;100.00;97954.94;5151247;27;20051;-93
2022/04/21 03:59:23;;;;;;;21.33;10.48;;;;;;;10.40;100.00;97970.50;5151299;27;20396;-92
2022/04/21 04:01:49;;;;;;;16.67;10.52;;;;;;;10.45;100.00;97964.09;5150924;27;20091;-93
2022/04/21 04:04:15;;;;;;;16.77;10.35;;;;;;;10.47;100.00;97962.25;5151459;27;20512;-93
2022/04/21 04:12:29;;;;;;;13.13;9.30;;;;;;;10.54;100.00;97957.53;5134937;27;20132;-92
2022/04/21 04:14:55;;;;;;;17.27;10.30;;;;;;;10.47;100.00;97951.59;5110423;28;20123;-93
2022/04/21 04:17:21;;;;;;;19.23;10.50;;;;;;;10.56;100.00;97965.44;5111720;28;20481;-92
2022/04/21 04:19:47;;;;;;;16.88;10.02;;;;;;;10.55;100.00;97947.78;5111235;28;20566;-93
2022/04/21 04:22:14;;;;;;;16.23;10.10;;;;;;;10.53;100.00;97923.03;5111966;28;20043;-92
2022/04/21 04:24:40;;;;;;;20.83;11.18;;;;;;;10.41;100.00;97935.00;5112476;28;20044;-92
2022/04/21 04:27:06;;;;;;;18.42;11.68;;;;;;;10.18;100.00;97910.19;5112322;28;20047;-93
2022/04/21 04:29:33;;;;;;;18.23;11.02;;;;;;;10.18;100.00;97910.19;5111668;28;20040;-92
2022/04/21 04:32:01;;;;;;;20.17;12.00;;;;;;;10.26;100.00;97931.16;5112087;28;20509;-92
2022/04/21 04:34:27;;;;;;;20.80;12.07;;;;;;;10.20;100.00;97921.63;5110864;28;20097;-93
2022/04/21 04:36:53;;;;;;;20.60;12.32;;;;;;;10.23;100.00;97924.16;5111733;28;20558;-92
2022/04/21 04:39:19;;;;;;;23.08;12.20;;;;;;;10.37;100.00;97934.28;5111488;28;20035;-92
2022/04/21 04:44:42;;;;;;;22.35;11.48;;;;;;;10.45;100.00;97945.50;5124481;27;20210;-93
2022/04/21 04:47:08;;;;;;;19.00;11.10;;;;;;;10.47;100.00;97942.75;5092142;28;20539;-92
2022/04/21 04:49:34;;;;;;;19.48;10.93;;;;;;;10.53;100.00;97945.16;5092167;28;20044;-95
2022/04/21 04:52:00;;;;;;;22.25;12.32;;;;;;;10.54;100.00;97940.72;5092064;28;20036;-92
2022/04/21 04:54:28;;;;;;;21.67;11.25;;;;;;;10.64;100.00;97940.28;5092065;28;20070;-94
2022/04/21 04:56:54;;;;;;;19.55;11.32;;;;;;;10.63;100.00;97935.03;5092045;28;20037;-93
2022/04/21 04:59:20;;;;;;;23.40;13.13;;;;;;;10.65;100.00;97941.16;5091739;28;20066;-93
2022/04/21 05:01:48;;;;;;;23.77;12.40;;;;;;;10.60;100.00;97933.34;5092104;28;20040;-93
2022/04/21 05:04:15;;;;;;;21.08;11.90;;;;;;;10.59;100.00;97936.09;5085252;28;20390;-93
2022/04/21 05:06:42;;;;;;;22.00;12.82;;;;;;;10.54;100.00;97924.75;5092157;28;20056;-94
2022/04/21 05:09:09;;;;;;;22.50;12.98;;;;;;;10.52;100.00;97918.63;5092230;28;20040;-93
2022/04/21 05:11:35;;;;;;;22.73;12.57;;;;;;;10.61;100.00;97939.56;5092454;28;20108;-93
2022/04/21 05:14:02;;;;;;;20.55;11.75;;;;;;;10.70;100.00;97923.22;5092756;28;20063;-93
2022/04/21 05:16:28;;;;;;;22.00;12.27;;;;;;;10.79;100.00;97933.47;5091850;28;20569;-94
2022/04/21 05:18:56;;;;;;;23.38;11.45;;;;;;;10.66;100.00;97925.13;5092316;28;20444;-93
2022/04/21 05:21:23;;;;;;;26.60;13.30;;;;;;;10.63;100.00;97935.91;5092132;28;20048;-93
2022/04/21 05:23:55;;;;;;;22.60;12.27;;;;;;;10.73;100.00;97933.72;5092131;28;20494;-93
2022/04/21 05:26:21;;;;;;;23.38;12.73;;;;;;;10.68;100.00;97933.06;5091475;28;20037;-93
2022/04/21 05:28:48;;;;;;;23.05;12.93;;;;;;;10.68;100.00;97938.38;5092062;28;20055;-94
2022/04/21 05:31:15;;;;;;;27.00;13.07;;;;;;;10.47;100.00;97919.72;5089817;28;20040;-94
2022/04/21 05:33:42;;;;;;;24.35;14.38;;;;;;;10.44;100.00;97930.44;5092126;28;20115;-93
2022/04/21 05:36:11;;;;;;;24.35;13.65;;;;;;;10.40;100.00;97922.66;5089953;28;20040;-92
2022/04/21 05:38:37;;;;;;;22.60;13.10;;;;;;;10.35;100.00;97906.06;5090394;28;20123;-92
2022/04/21 05:41:04;;;;;;;25.17;13.52;;;;;;;10.47;100.00;97935.66;5090629;28;20055;-92
2022/04/21 05:43:39;;;;;;;27.70;13.48;;;;;;;10.56;100.00;97941.50;5090421;28;20127;-93
2022/04/21 05:46:06;;;;;;;24.58;14.13;;;;;;;10.56;100.00;97938.84;5090573;28;20032;-92
2022/04/21 05:48:33;;;;;;;29.58;14.52;;;;;;;10.67;100.00;97945.50;5091383;28;20520;-93
2022/04/21 05:50:59;;;;;;;24.50;13.45;;;;;;;10.64;100.00;97940.28;5090685;28;20045;-93
2022/04/21 05:53:27;;;;;;;26.73;14.90;;;;;;;10.67;100.00;97944.63;5091216;28;20044;-93
2022/04/21 05:55:54;;;;;;;26.55;14.32;;;;;;;10.58;100.00;97916.63;5077879;28;20436;-92
2022/04/21 05:58:22;;;;;;;27.02;13.63;;;;;;;10.77;100.00;97921.16;5077195;28;20040;-93
2022/04/21 06:00:49;;;;;;;22.23;12.30;;;;;;;10.89;100.00;97916.22;5077028;28;20060;-94
2022/04/21 06:03:14;;;;;;;25.02;13.35;;;;;;;10.85;100.00;97893.31;5076721;28;20049;-93
2022/04/21 06:05:41;;;;;;;20.65;12.75;;;;;;;10.98;100.00;97899.00;5066732;28;20579;-93
2022/04/21 06:08:07;;;;;;;22.13;13.02;;;;;;;11.04;100.00;97906.72;5078063;28;20037;-93
2022/04/21 06:10:35;;;;;;;25.20;12.98;;;;;;;11.02;100.00;97905.91;5077767;28;20040;-93
2022/04/21 06:13:02;;;;;;;17.58;12.00;;;;;;;10.98;100.00;97908.78;5076915;28;20037;-94
2022/04/21 06:15:30;;;;;;;19.70;12.38;;;;;;;10.97;100.00;97904.38;5076179;28;20052;-90
2022/04/21 06:17:56;;;;;;;16.92;10.80;;;;;;;10.93;100.00;97884.13;5075071;28;20124;-93
2022/04/21 06:20:22;;;;;;;20.63;11.57;;;;;;;11.12;100.00;97885.09;5077448;28;20123;-93
2022/04/21 06:22:50;;;;;;;22.45;12.82;;;;;;;11.23;100.00;97872.19;5076821;28;20041;-94
2022/04/21 06:25:16;;;;;;;18.48;11.18;;;;;;;11.45;100.00;97880.09;5076949;28;20044;-94
2022/04/21 06:27:43;;;;;;;19.48;11.27;;;;;;;11.50;100.00;97858.56;5074986;28;20048;-92
2022/04/21 06:30:10;;;;;;;18.50;10.95;;;;;;;11.84;100.00;97873.00;5076509;28;20044;-92
2022/04/21 06:32:36;;;;;;;19.30;10.30;;;;;;;12.06;100.00;97879.09;5076155;28;20396;-92
2022/04/21 06:35:03;;;;;;;17.83;10.50;;;;;;;12.18;97.05;97880.28;5075910;28;20492;-92
2022/04/21 06:37:29;;;;;;;17.13;10.95;;;;;;;12.02;98.06;97871.31;5076644;28;20044;-93
2022/04/21 06:39:54;;;;;;;14.93;9.75;;;;;;;11.74;98.70;97874.38;5076471;28;20043;-91
2022/04/21 06:42:20;;;;;;;19.42;11.02;;;;;;;11.76;100.00;97891.16;5076395;28;20044;-95
2022/04/21 06:50:45;;;;;;;17.20;9.07;;;;;;;11.55;100.00;97882.31;5127530;27;20158;-93
2022/04/21 06:53:12;;;;;;;16.30;10.10;;;;;;;11.46;100.00;97856.97;5102707;28;20289;-92
2022/04/21 06:55:38;;;;;;;17.75;10.40;;;;;;;11.43;100.00;97862.47;5105213;28;20044;-92
2022/04/21 06:58:03;;;;;;;16.83;9.05;;;;;;;11.47;99.83;97864.03;5105379;28;20036;-91
2022/04/21 07:00:29;;;;;;;15.93;9.73;;;;;;;11.55;99.43;97861.88;5097928;28;20040;-90
2022/04/21 07:02:57;;;;;;;15.45;9.45;;;;;;;11.81;98.70;97871.34;5108942;28;20075;-94
2022/04/21 07:05:24;;;;;;;15.68;9.48;;;;;;;11.63;98.12;97850.91;5104679;28;20044;-93
2022/04/21 07:07:52;;;;;;;16.23;8.68;;;;;;;11.62;98.56;97843.81;5105075;28;20048;-92
2022/04/21 07:10:19;;;;;;;16.75;9.82;;;;;;;11.63;99.04;97854.41;5108251;28;20039;-92
2022/04/21 07:12:46;;;;;;;15.25;8.98;;;;;;;11.76;98.75;97867.19;5105724;28;20169;-91
2022/04/21 07:15:12;;;;;;;18.48;8.85;;;;;;;11.83;98.67;97855.28;5096333;28;20498;-91
2022/04/21 07:17:39;;;;;;;16.98;8.38;;;;;;;11.84;98.30;97862.34;5108706;28;20489;-92
2022/04/21 07:20:07;;;;;;;16.48;8.95;;;;;;;11.84;96.42;97839.25;5107225;28;20047;-92
2022/04/21 07:22:33;;;;;;;14.80;8.18;;;;;;;11.90;96.07;97846.09;5104768;28;20036;-91
2022/04/21 07:25:02;;;;;;;14.40;8.45;;;;;;;11.88;97.06;97842.63;5096802;28;20043;-91
2022/04/21 07:27:28;;;;;;;17.52;9.55;;;;;;;11.74;97.33;97837.94;5103845;28;20061;-92
2022/04/21 07:29:54;;;;;;;16.88;10.48;;;;;;;11.77;97.54;97853.75;5099272;28;20032;-94
2022/04/21 07:32:20;;;;;;;18.88;10.35;;;;;;;11.76;97.72;97843.19;5101630;28;20087;-93
2022/04/21 07:34:45;;;;;;;18.77;11.43;;;;;;;11.77;98.96;97855.56;5095712;28;20533;-92
2022/04/21 07:37:11;;;;;;;20.02;10.15;;;;;;;11.97;97.87;97846.66;5100676;28;20131;-91
2022/04/21 07:39:38;;;;;;;15.45;9.20;;;;;;;12.09;95.88;97841.63;5093996;28;20048;-94
2022/04/21 07:42:05;;;;;;;14.88;9.70;;;;;;;12.35;95.21;97851.97;5100817;28;20036;-93
2022/04/21 07:44:31;;;;;;;15.02;9.05;;;;;;;12.54;93.30;97852.78;5103398;28;20047;-91
2022/04/21 07:46:57;;;;;;;17.10;9.43;;;;;;;12.59;93.30;97831.22;5103126;28;20040;-93
2022/04/21 07:55:24;;;;;;;14.10;8.77;;;;;;;14.32;84.40;97824.59;5127404;27;20163;-92
2022/04/21 07:57:49;;;;;;;;;;;;;;;13.91;85.34;97833.16;5098488;28;20113;-91
2022/04/21 08:00:17;;;;;;;15.98;9.25;;;;;;;14.00;85.17;97821.06;5100180;28;20309;-92
2022/04/21 08:02:44;;;;;;;14.93;8.98;;;;;;;14.17;85.29;97815.63;5103221;28;20040;-92
2022/04/21 08:05:11;;;;;;;16.80;8.80;;;;;;;14.09;83.59;97796.50;5099321;28;20440;-94
2022/04/21 08:07:37;;;;;;;14.63;8.93;;;;;;;14.08;86.53;97807.28;5103841;28;20085;-92
2022/04/21 08:10:04;;;;;;;16.42;9.35;;;;;;;13.99;85.20;97776.59;5099861;28;20050;-95
2022/04/21 08:12:39;;;;;;;13.55;8.70;;;;;;;13.73;86.44;97775.41;5098866;28;20040;-94
2022/04/21 08:15:06;;;;;;;12.38;8.10;;;;;;;14.13;84.59;97798.03;5105470;28;20119;-92
2022/04/21 08:17:32;;;;;;;13.18;8.65;;;;;;;13.98;85.83;97780.22;5104461;28;20033;-92
2022/04/21 08:19:57;;;;;;;15.25;9.45;;;;;;;14.11;85.46;97789.25;5104889;28;20082;-93
2022/04/21 08:22:23;;;;;;;16.88;8.85;;;;;;;13.69;87.53;97789.88;5106754;28;20046;-93
2022/04/21 08:33:46;;;;;;;12.38;7.65;;;;;;;14.05;82.52;97770.03;5126294;27;20595;-94
2022/04/21 08:36:12;;;;;;;13.15;7.32;;;;;;;13.78;83.72;97749.28;5099003;28;20040;-95
2022/04/21 08:38:38;;;;;;;10.40;7.28;;;;;;;13.96;82.65;97747.34;5104828;28;20390;-93
2022/04/21 08:41:06;;;;;;;11.25;7.00;;;;;;;13.89;83.82;97749.53;5101190;28;20086;-89
2022/04/21 08:43:34;;;;;;;11.40;7.07;;;;;;;13.85;83.98;97755.97;5105773;28;20047;-91
2022/04/21 08:46:01;;;;;;;14.20;7.28;;;;;;;13.65;83.80;97749.09;5106750;28;20053;-93
2022/04/21 08:48:27;;;;;;;13.50;7.50;;;;;;;13.67;84.27;97757.88;5107659;28;20035;-92
2022/04/21 08:50:55;;;;;;;11.38;7.20;;;;;;;13.87;83.31;97747.88;5110857;28;20058;-91
2022/04/21 08:53:23;;;;;;;14.18;7.13;;;;;;;14.20;81.98;97765.63;5102222;28;20119;-93
2022/04/21 08:55:50;;;;;;;12.00;7.18;;;;;;;13.85;83.90;97733.75;5112407;28;20048;-94
2022/04/21 08:58:16;;;;;;;10.95;7.15;;;;;;;13.78;84.60;97751.94;5112336;28;20520;-92
2022/04/21 09:00:43;;;;;;;13.75;7.05;;;;;;;14.04;83.08;97753.13;5112324;28;20043;-91
2022/04/21 09:03:10;;;;;;;11.05;6.53;;;;;;;14.18;83.24;97741.63;5112885;28;20546;-92
2022/04/21 09:05:36;;;;;;;10.98;6.95;;;;;;;14.11;82.00;97745.63;5111260;28;20492;-92
2022/04/21 09:08:04;;;;;;;10.32;6.43;;;;;;;14.30;81.68;97748.94;5112545;28;20096;-92
2022/04/21 09:10:32;;;;;;;12.37;7.47;;;;;;;14.36;81.26;97723.66;5111165;28;20064;-95
2022/04/21 09:13:00;;;;;;;11.18;6.07;;;;;;;14.50;81.32;97718.34;5111277;28;20032;-91
2022/04/21 09:15:27;;;;;;;9.15;6.35;;;;;;;14.63;81.64;97723.00;5112111;28;20032;-94
2022/04/21 09:17:56;;;;;;;10.60;6.93;;;;;;;14.46;80.43;97706.09;5111801;28;20131;-94
2022/04/21 09:20:23;;;;;;;11.00;6.30;;;;;;;15.11;79.44;97715.59;5111736;28;20035;-92
2022/04/21 09:22:53;;;;;;;11.93;6.60;;;;;;;15.07;80.02;97680.13;5112387;28;20036;-93
2022/04/21 09:25:24;;;;;;;12.80;6.35;;;;;;;15.40;79.82;97706.59;5112101;28;20401;-93
2022/04/21 09:27:51;;;;;;;10.10;6.00;;;;;;;15.56;76.18;97702.91;5111697;28;20047;-93
2022/04/21 09:30:17;;;;;;;11.57;5.82;;;;;;;15.66;76.60;97713.88;5111955;28;20047;-94
2022/04/21 09:32:52;;;;;;;10.13;6.13;;;;;;;15.50;76.92;97716.69;5111354;28;20089;-93
2022/04/21 09:35:18;;;;;;;12.95;7.07;;;;;;;15.32;77.83;97713.38;5109152;28;20515;-94
2022/04/21 09:37:48;;;;;;;10.05;6.03;;;;;;;15.39;78.81;97728.09;5112239;28;20032;-93
2022/04/21 09:40:15;;;;;;;13.07;6.65;;;;;;;15.25;79.20;97725.44;5112330;28;20493;-92
2022/04/21 09:42:53;;;;;;;10.77;6.13;;;;;;;15.18;78.85;97728.50;5111741;28;20078;-93
2022/04/21 09:48:29;;;;;;;10.85;6.03;;;;;;;15.19;78.29;97710.63;5188051;27;195278;-92
2022/04/21 09:51:07;;;;;;;11.80;6.70;;;;;;;15.40;77.35;97697.69;5183590;27;20049;-92
2022/04/21 09:53:47;;;;;;;11.50;6.22;;;;;;;15.25;77.70;97687.97;5180655;27;20090;-94
2022/04/21 09:56:13;;;;;;;10.00;6.75;;;;;;;15.19;79.35;97699.91;5189664;27;20035;-94
2022/04/21 09:58:39;;;;;;;10.68;5.75;;;;;;;15.27;78.42;97691.41;5190399;27;20087;-94
2022/04/21 10:01:05;;;;;;;11.30;6.45;;;;;;;15.15;80.15;97703.72;5179402;27;20037;-92
2022/04/21 10:03:33;;;;;;;9.75;6.10;;;;;;;15.06;79.21;97682.88;5195749;27;20041;-92
2022/04/21 10:05:59;;;;;;;17.73;6.40;;;;;;;15.35;78.43;97705.13;5187843;27;20046;-93
2022/04/21 10:08:25;;;;;;;10.60;5.55;;;;;;;15.27;77.52;97697.59;5183569;27;20476;-93
2022/04/21 10:10:53;;;;;;;10.48;6.05;;;;;;;15.10;78.03;97674.56;5193080;27;20065;-91
2022/04/21 10:13:19;;;;;;;9.90;5.65;;;;;;;15.25;77.51;97683.44;5188897;27;20038;-93
2022/04/21 10:15:45;;;;;;;12.02;5.40;;;;;;;15.37;75.61;97705.91;5183360;27;20070;-93
2022/04/21 10:18:13;;;;;;;13.50;6.40;;;;;;;15.25;75.83;97702.19;5191263;27;20050;-94
2022/04/21 10:20:42;;;;;;;8.43;4.72;;;;;;;15.12;74.80;97694.06;5188905;27;20058;-94
2022/04/21 10:23:13;;;;;;;10.73;4.45;;;;;;;15.18;73.14;97699.06;5187283;27;20079;-93
2022/04/21 10:25:40;;;;;;;11.57;5.10;;;;;;;15.33;72.06;97697.22;5187121;27;20495;-91
2022/04/21 10:28:36;;;;;;;9.85;3.75;;;;;;;15.37;72.72;97704.09;5189321;27;20065;-94
2022/04/21 10:31:31;;;;;;;8.68;4.22;;;;;;;15.07;72.47;97692.63;5187353;27;20173;-93
2022/04/21 10:33:59;;;;;;;8.18;3.90;;;;;;;14.99;72.48;97685.09;5174554;27;20519;-96
2022/04/21 10:36:41;;;;;;;6.88;3.30;;;;;;;15.00;73.27;97679.63;5182738;27;20059;-93
2022/04/21 10:39:26;;;;;;;12.00;3.85;;;;;;;14.78;72.22;97671.22;5181417;27;20579;-92
2022/04/21 10:42:21;;;;;;;6.95;3.97;;;;;;;14.62;73.37;97684.69;5179923;27;20072;-92
2022/04/21 10:44:52;;;;;;;6.47;3.85;;;;;;;14.34;74.36;97696.16;5090465;28;20055;-93
2022/04/21 10:47:28;;;;;;;6.85;3.80;;;;;;;14.47;75.32;97744.44;5085537;28;20545;-94
2022/04/21 10:49:55;;;;;;;6.45;3.67;;;;;;;14.38;74.66;97737.81;5084746;28;20373;-92
2022/04/21 10:58:51;;;;;;;10.68;4.75;;;;;;;14.39;75.22;97752.91;5144647;27;20539;-95
2022/04/21 11:01:28;;;;;;;7.70;4.10;;;;;;;14.37;75.66;97749.44;5110779;28;20048;-92
2022/04/21 11:04:08;;;;;;;7.40;3.95;;;;;;;14.44;74.93;97749.94;5112223;28;20054;-93
2022/04/21 11:06:39;;;;;;;7.88;3.90;;;;;;;14.42;76.00;97746.50;5112325;28;20126;-93
2022/04/21 11:09:05;;;;;;;9.07;4.82;;;;;;;14.25;76.48;97736.78;5112593;28;20048;-93
2022/04/21 11:11:44;;;;;;;9.80;4.50;;;;;;;14.20;75.94;97739.72;5112387;28;20119;-92
2022/04/21 11:14:11;;;;;;;7.75;4.40;;;;;;;14.18;76.29;97717.56;5112301;28;20416;-94
2022/04/21 11:16:47;;;;;;;8.82;5.07;;;;;;;14.42;76.53;97727.78;5112013;28;20126;-93
2022/04/21 11:19:35;;;;;;;9.20;4.32;;;;;;;14.63;77.04;97731.03;5112189;28;20032;-89
2022/04/21 11:22:02;;;;;;;8.18;4.40;;;;;;;14.86;74.54;97724.28;5111284;28;20036;-94
2022/04/21 11:25:02;;;;;;;8.18;5.05;;;;;;;14.77;75.57;97726.56;5112636;28;20516;-93
2022/04/21 11:27:29;;;;;;;7.55;4.75;;;;;;;14.92;75.51;97723.88;5112856;28;20142;-93
2022/04/21 11:30:00;;;;;;;7.85;4.30;;;;;;;14.79;75.80;97713.94;5112017;28;20058;-94
2022/04/21 11:32:26;;;;;;;10.90;4.90;;;;;;;14.84;76.65;97704.78;5111943;28;20036;-93
2022/04/21 11:35:00;;;;;;;7.45;4.20;;;;;;;14.86;76.51;97703.72;5112048;28;20123;-92
2022/04/21 11:37:47;;;;;;;9.38;5.32;;;;;;;14.81;77.69;97705.81;5105302;28;20032;-93
2022/04/21 11:40:35;;;;;;;14.85;5.07;;;;;;;14.73;78.29;97703.63;5112691;28;20039;-94
2022/04/21 11:43:04;;;;;;;9.47;4.73;;;;;;;14.47;79.80;97681.09;5113101;28;20044;-93
2022/04/21 11:45:35;;;;;;;;;;;;;;;14.65;79.25;97683.63;5112927;28;20126;-93
2022/04/21 11:48:01;;;;;;;11.07;4.88;;;;;;;14.48;80.98;97647.16;5112455;28;19927;-95
2022/04/21 11:50:29;;;;;;;9.30;5.20;;;;;;;14.30;82.45;97660.69;5112284;28;20043;-94
2022/04/21 11:52:56;;;;;;;11.70;4.90;;;;;;;14.17;83.74;97662.38;5112831;28;20195;-93
2022/04/21 11:55:24;;;;;;;7.82;4.47;;;;;;;14.40;82.03;97661.03;5111760;28;20452;-92
2022/04/21 11:57:50;;;;;;;9.30;4.40;;;;;;;14.60;82.29;97645.59;5110238;28;20139;-93
2022/04/21 12:06:27;;;;;;;11.63;4.38;;;;;;;14.55;80.44;97641.41;5111501;28;20052;-92
2022/04/21 12:09:04;;;;;;;6.93;4.35;;;;;;;14.92;77.40;97631.09;5137108;27;20164;-93
2022/04/21 12:11:31;;;;;;;9.23;4.80;;;;;;;14.90;79.14;97616.94;5107012;28;20109;-94
2022/04/21 12:13:57;;;;;;;9.88;4.53;;;;;;;15.20;77.25;97631.97;5112807;28;20389;-94
2022/04/21 12:16:53;;;;;;;10.13;4.32;;;;;;;14.76;76.99;97635.66;5113372;28;20040;-94
2022/04/21 12:19:26;;;;;;;6.93;4.30;;;;;;;14.70;78.09;97602.13;5109975;28;20052;-93
2022/04/21 12:22:01;;;;;;;7.72;4.00;;;;;;;14.88;77.82;97602.78;5113355;28;20079;-94
2022/04/21 12:24:30;;;;;;;11.73;4.38;;;;;;;14.93;76.33;97576.56;5111817;28;20389;-94
2022/04/21 12:26:57;;;;;;;9.98;4.05;;;;;;;14.86;77.51;97575.25;5112835;28;20036;-91